sensor_id;sensor_type;location;lat;lon;timestamp;pressure;altitude;pressure_sealevel;temperature;humidity
24280;BME280;12395;42.808;23.408;2023-02-01T00:01:31;94967.56;;;-0.85;100.00
24280;BME280;12395;42.808;23.408;2023-02-01T00:03:56;94966.88;;;-0.87;100.00
24280;BME280;12395;42.808;23.408;2023-02-01T00:06:21;94968.94;;;-0.81;100.00
24280;BME280;12395;42.808;23.408;2023-02-01T00:08:47;94974.81;;;-0.79;100.00
24280;BME280;12395;42.808;23.408;2023-02-01T00:11:13;94975.38;;;-0.75;100.00
24280;BME280;12395;42.808;23.408;2023-02-01T00:13:40;94969.50;;;-0.77;100.00
24280;BME280;12395;42.808;23.408;2023-02-01T00:16:09;94980.28;;;-0.72;100.00
24280;BME280;12395;42.808;23.408;2023-02-01T00:18:37;94947.06;;;-0.88;100.00
24280;BME280;12395;42.808;23.408;2023-02-01T00:21:02;94969.34;;;-0.76;100.00
24280;BME280;12395;42.808;23.408;2023-02-01T00:23:28;94963.59;;;-0.70;100.00
24280;BME280;12395;42.808;23.408;2023-02-01T00:25:53;94967.28;;;-0.63;100.00
24280;BME280;12395;42.808;23.408;2023-02-01T00:28:19;94963.88;;;-0.54;100.00
24280;BME280;12395;42.808;23.408;2023-02-01T00:30:44;94964.25;;;-0.49;100.00
24280;BME280;12395;42.808;23.408;2023-02-01T00:33:10;94971.91;;;-0.28;100.00
24280;BME280;12395;42.808;23.408;2023-02-01T00:35:35;94967.75;;;-0.21;100.00
24280;BME280;12395;42.808;23.408;2023-02-01T00:38:01;94975.56;;;-0.12;100.00
24280;BME280;12395;42.808;23.408;2023-02-01T00:40:26;94964.41;;;-0.04;100.00
24280;BME280;12395;42.808;23.408;2023-02-01T00:42:52;94964.97;;;-0.01;100.00
24280;BME280;12395;42.808;23.408;2023-02-01T00:45:18;94961.13;;;0.04;100.00
24280;BME280;12395;42.808;23.408;2023-02-01T00:47:43;94973.25;;;0.22;100.00
24280;BME280;12395;42.808;23.408;2023-02-01T00:50:09;94972.41;;;0.22;100.00
24280;BME280;12395;42.808;23.408;2023-02-01T00:52:35;94957.09;;;0.19;100.00
24280;BME280;12395;42.808;23.408;2023-02-01T00:55:00;94946.84;;;0.08;100.00
24280;BME280;12395;42.808;23.408;2023-02-01T00:57:26;94956.25;;;0.18;100.00
24280;BME280;12395;42.808;23.408;2023-02-01T00:59:51;94957.03;;;0.28;100.00
24280;BME280;12395;42.808;23.408;2023-02-01T01:02:17;94951.16;;;0.26;100.00
24280;BME280;12395;42.808;23.408;2023-02-01T01:04:42;94940.47;;;0.29;100.00
24280;BME280;12395;42.808;23.408;2023-02-01T01:07:07;94943.34;;;0.26;100.00
24280;BME280;12395;42.808;23.408;2023-02-01T01:09:33;94939.22;;;0.24;100.00
24280;BME280;12395;42.808;23.408;2023-02-01T01:11:59;94929.13;;;0.21;100.00
24280;BME280;12395;42.808;23.408;2023-02-01T01:14:30;94936.78;;;0.22;100.00
24280;BME280;12395;42.808;23.408;2023-02-01T01:16:56;94936.09;;;0.20;100.00
24280;BME280;12395;42.808;23.408;2023-02-01T01:19:22;94951.72;;;0.20;100.00
24280;BME280;12395;42.808;23.408;2023-02-01T01:21:47;94945.69;;;0.20;100.00
24280;BME280;12395;42.808;23.408;2023-02-01T01:24:12;94934.75;;;0.16;100.00
24280;BME280;12395;42.808;23.408;2023-02-01T01:26:38;94942.50;;;0.26;100.00
24280;BME280;12395;42.808;23.408;2023-02-01T01:29:04;94939.91;;;0.26;100.00
24280;BME280;12395;42.808;23.408;2023-02-01T01:31:30;94958.13;;;0.26;100.00
24280;BME280;12395;42.808;23.408;2023-02-01T01:33:57;94947.50;;;0.19;100.00
24280;BME280;12395;42.808;23.408;2023-02-01T01:36:23;94956.66;;;0.23;100.00
24280;BME280;12395;42.808;23.408;2023-02-01T01:38:49;94934.66;;;0.08;100.00
24280;BME280;12395;42.808;23.408;2023-02-01T01:41:19;94940.38;;;0.12;100.00
24280;BME280;12395;42.808;23.408;2023-02-01T01:43:58;94956.00;;;0.12;100.00
24280;BME280;12395;42.808;23.408;2023-02-01T01:46:44;94955.75;;;0.05;100.00
24280;BME280;12395;42.808;23.408;2023-02-01T01:49:21;94953.88;;;-0.03;100.00
24280;BME280;12395;42.808;23.408;2023-02-01T01:51:57;94946.34;;;-0.06;100.00
24280;BME280;12395;42.808;23.408;2023-02-01T01:54:29;94943.22;;;-0.09;100.00
24280;BME280;12395;42.808;23.408;2023-02-01T01:57:00;94958.97;;;-0.11;100.00
24280;BME280;12395;42.808;23.408;2023-02-01T01:59:27;94957.50;;;-0.23;100.00
24280;BME280;12395;42.808;23.408;2023-02-01T02:01:52;94945.88;;;-0.28;100.00
24280;BME280;12395;42.808;23.408;2023-02-01T02:04:18;94938.91;;;-0.37;100.00
24280;BME280;12395;42.808;23.408;2023-02-01T02:06:54;94951.50;;;-0.33;100.00
24280;BME280;12395;42.808;23.408;2023-02-01T02:09:21;94917.72;;;-0.61;100.00
24280;BME280;12395;42.808;23.408;2023-02-01T02:11:47;94951.13;;;-0.47;100.00
24280;BME280;12395;42.808;23.408;2023-02-01T02:14:15;94954.81;;;-0.50;100.00
24280;BME280;12395;42.808;23.408;2023-02-01T02:36:34;94970.44;;;-0.50;100.00
24280;BME280;12395;42.808;23.408;2023-02-01T02:39:07;94971.53;;;-0.43;100.00
24280;BME280;12395;42.808;23.408;2023-02-01T02:51:19;94959.69;;;-0.28;99.96
24280;BME280;12395;42.808;23.408;2023-02-01T02:54:05;94950.94;;;-0.27;99.55
24280;BME280;12395;42.808;23.408;2023-02-01T02:56:52;94949.84;;;-0.34;99.26
24280;BME280;12395;42.808;23.408;2023-02-01T02:59:39;94943.13;;;-0.36;99.04
24280;BME280;12395;42.808;23.408;2023-02-01T03:02:26;94957.22;;;-0.29;99.13
24280;BME280;12395;42.808;23.408;2023-02-01T03:05:10;94956.97;;;-0.26;99.26
24280;BME280;12395;42.808;23.408;2023-02-01T03:12:49;94967.22;;;-0.25;100.00
24280;BME280;12395;42.808;23.408;2023-02-01T03:15:58;94966.97;;;-0.22;100.00
24280;BME280;12395;42.808;23.408;2023-02-01T03:18:28;94975.41;;;-0.10;99.37
24280;BME280;12395;42.808;23.408;2023-02-01T03:20:57;94984.31;;;-0.03;98.52
24280;BME280;12395;42.808;23.408;2023-02-01T03:23:27;94988.13;;;0.03;97.19
24280;BME280;12395;42.808;23.408;2023-02-01T03:25:57;94976.06;;;0.02;97.21
24280;BME280;12395;42.808;23.408;2023-02-01T03:28:26;94980.44;;;0.11;96.71
24280;BME280;12395;42.808;23.408;2023-02-01T03:30:53;94997.25;;;0.16;96.38
24280;BME280;12395;42.808;23.408;2023-02-01T03:33:21;94971.66;;;0.12;96.94
24280;BME280;12395;42.808;23.408;2023-02-01T03:41:24;94992.66;;;0.37;96.51
24280;BME280;12395;42.808;23.408;2023-02-01T03:44:16;94984.16;;;0.35;96.83
24280;BME280;12395;42.808;23.408;2023-02-01T03:47:16;94990.97;;;0.46;97.35
24280;BME280;12395;42.808;23.408;2023-02-01T03:49:52;94963.66;;;0.23;97.83
24280;BME280;12395;42.808;23.408;2023-02-01T03:52:25;94979.53;;;0.29;98.61
24280;BME280;12395;42.808;23.408;2023-02-01T03:54:53;94984.44;;;0.32;98.97
24280;BME280;12395;42.808;23.408;2023-02-01T03:57:26;94979.13;;;0.24;99.30
24280;BME280;12395;42.808;23.408;2023-02-01T03:59:52;94974.50;;;0.18;99.79
24280;BME280;12395;42.808;23.408;2023-02-01T04:02:18;94978.97;;;0.26;100.00
24280;BME280;12395;42.808;23.408;2023-02-01T04:04:43;94972.16;;;0.25;100.00
24280;BME280;12395;42.808;23.408;2023-02-01T04:07:08;94967.47;;;0.28;100.00
24280;BME280;12395;42.808;23.408;2023-02-01T04:09:34;94979.56;;;0.20;100.00
24280;BME280;12395;42.808;23.408;2023-02-01T04:11:59;94977.53;;;0.14;100.00
24280;BME280;12395;42.808;23.408;2023-02-01T04:14:25;94992.75;;;0.09;100.00
24280;BME280;12395;42.808;23.408;2023-02-01T04:16:50;94981.38;;;0.10;100.00
24280;BME280;12395;42.808;23.408;2023-02-01T04:19:16;94997.13;;;0.18;100.00
24280;BME280;12395;42.808;23.408;2023-02-01T04:21:41;94994.97;;;0.04;100.00
24280;BME280;12395;42.808;23.408;2023-02-01T04:24:06;94996.50;;;0.06;99.92
24280;BME280;12395;42.808;23.408;2023-02-01T04:26:32;94987.06;;;-0.05;99.66
24280;BME280;12395;42.808;23.408;2023-02-01T04:28:57;94979.38;;;-0.06;99.45
24280;BME280;12395;42.808;23.408;2023-02-01T04:31:23;95005.66;;;0.10;99.99
24280;BME280;12395;42.808;23.408;2023-02-01T04:33:53;94978.41;;;-0.05;99.90
24280;BME280;12395;42.808;23.408;2023-02-01T04:36:20;95007.44;;;0.10;100.00
24280;BME280;12395;42.808;23.408;2023-02-01T04:38:51;94980.72;;;-0.02;99.78
24280;BME280;12395;42.808;23.408;2023-02-01T04:41:18;94997.16;;;0.08;100.00
24280;BME280;12395;42.808;23.408;2023-02-01T04:43:47;95001.94;;;0.13;99.73
24280;BME280;12395;42.808;23.408;2023-02-01T04:46:13;95001.28;;;0.11;99.37
24280;BME280;12395;42.808;23.408;2023-02-01T04:48:38;94983.72;;;0.03;99.40
24280;BME280;12395;42.808;23.408;2023-02-01T04:51:04;94989.50;;;-0.03;99.47
24280;BME280;12395;42.808;23.408;2023-02-01T04:53:29;94982.38;;;-0.11;100.00
24280;BME280;12395;42.808;23.408;2023-02-01T04:55:55;95010.88;;;0.00;100.00
24280;BME280;12395;42.808;23.408;2023-02-01T04:58:21;95017.84;;;0.10;100.00
24280;BME280;12395;42.808;23.408;2023-02-01T05:00:46;94994.31;;;0.02;100.00
24280;BME280;12395;42.808;23.408;2023-02-01T05:03:12;95007.59;;;-0.02;100.00
24280;BME280;12395;42.808;23.408;2023-02-01T05:05:37;95012.22;;;0.05;100.00
24280;BME280;12395;42.808;23.408;2023-02-01T05:08:03;95016.34;;;0.07;100.00
24280;BME280;12395;42.808;23.408;2023-02-01T05:10:28;95021.41;;;0.09;99.66
24280;BME280;12395;42.808;23.408;2023-02-01T05:12:54;95021.97;;;0.03;100.00
24280;BME280;12395;42.808;23.408;2023-02-01T05:15:38;95018.25;;;0.05;100.00
24280;BME280;12395;42.808;23.408;2023-02-01T05:18:03;95009.22;;;0.09;99.93
24280;BME280;12395;42.808;23.408;2023-02-01T05:20:29;95011.69;;;0.11;99.69
24280;BME280;12395;42.808;23.408;2023-02-01T05:22:54;95025.50;;;0.21;99.65
24280;BME280;12395;42.808;23.408;2023-02-01T05:25:19;95028.94;;;0.21;99.51
24280;BME280;12395;42.808;23.408;2023-02-01T05:27:45;95022.34;;;0.17;99.86
24280;BME280;12395;42.808;23.408;2023-02-01T05:30:11;95019.63;;;0.19;99.85
24280;BME280;12395;42.808;23.408;2023-02-01T05:32:36;95018.25;;;0.15;100.00
24280;BME280;12395;42.808;23.408;2023-02-01T05:35:02;95020.88;;;0.15;100.00
24280;BME280;12395;42.808;23.408;2023-02-01T05:37:27;95033.81;;;0.34;100.00
24280;BME280;12395;42.808;23.408;2023-02-01T05:39:53;95017.53;;;0.22;100.00
24280;BME280;12395;42.808;23.408;2023-02-01T05:42:18;95021.81;;;0.14;100.00
24280;BME280;12395;42.808;23.408;2023-02-01T05:44:44;95021.38;;;0.18;100.00
24280;BME280;12395;42.808;23.408;2023-02-01T05:47:09;95025.66;;;0.19;100.00
24280;BME280;12395;42.808;23.408;2023-02-01T05:49:35;95031.97;;;0.17;100.00
24280;BME280;12395;42.808;23.408;2023-02-01T05:52:01;95033.59;;;0.18;100.00
24280;BME280;12395;42.808;23.408;2023-02-01T05:54:27;95027.09;;;0.31;100.00
24280;BME280;12395;42.808;23.408;2023-02-01T05:56:52;95045.34;;;0.31;100.00
24280;BME280;12395;42.808;23.408;2023-02-01T05:59:17;95020.19;;;0.13;100.00
24280;BME280;12395;42.808;23.408;2023-02-01T06:01:43;95047.53;;;0.26;100.00
24280;BME280;12395;42.808;23.408;2023-02-01T06:04:08;95034.00;;;0.23;100.00
24280;BME280;12395;42.808;23.408;2023-02-01T06:06:34;95054.25;;;0.38;100.00
24280;BME280;12395;42.808;23.408;2023-02-01T06:08:59;95045.88;;;0.35;100.00
24280;BME280;12395;42.808;23.408;2023-02-01T06:11:25;95056.03;;;0.38;100.00
24280;BME280;12395;42.808;23.408;2023-02-01T06:13:51;95043.16;;;0.36;100.00
24280;BME280;12395;42.808;23.408;2023-02-01T06:16:16;95029.72;;;0.31;100.00
24280;BME280;12395;42.808;23.408;2023-02-01T06:18:42;95056.78;;;0.57;100.00
24280;BME280;12395;42.808;23.408;2023-02-01T06:21:08;95059.91;;;0.61;100.00
24280;BME280;12395;42.808;23.408;2023-02-01T06:23:34;95049.88;;;0.66;100.00
24280;BME280;12395;42.808;23.408;2023-02-01T06:26:04;95044.94;;;0.63;100.00
24280;BME280;12395;42.808;23.408;2023-02-01T06:28:31;95057.97;;;0.72;100.00
24280;BME280;12395;42.808;23.408;2023-02-01T06:30:57;95058.88;;;0.81;100.00
24280;BME280;12395;42.808;23.408;2023-02-01T06:33:24;95050.94;;;0.73;100.00
24280;BME280;12395;42.808;23.408;2023-02-01T06:35:56;95057.63;;;0.85;100.00
24280;BME280;12395;42.808;23.408;2023-02-01T06:38:22;95070.06;;;0.91;99.27
24280;BME280;12395;42.808;23.408;2023-02-01T06:40:55;95053.66;;;0.81;98.25
24280;BME280;12395;42.808;23.408;2023-02-01T06:43:25;95055.00;;;0.85;98.73
24280;BME280;12395;42.808;23.408;2023-02-01T06:45:51;95066.06;;;0.97;98.05
24280;BME280;12395;42.808;23.408;2023-02-01T06:48:17;95071.50;;;1.03;97.47
24280;BME280;12395;42.808;23.408;2023-02-01T06:50:43;95066.22;;;0.95;96.64
24280;BME280;12395;42.808;23.408;2023-02-01T06:53:08;95077.81;;;1.10;97.01
24280;BME280;12395;42.808;23.408;2023-02-01T06:55:34;95073.69;;;1.08;96.28
24280;BME280;12395;42.808;23.408;2023-02-01T06:57:59;95070.41;;;1.06;96.22
24280;BME280;12395;42.808;23.408;2023-02-01T07:00:26;95077.66;;;1.12;95.64
24280;BME280;12395;42.808;23.408;2023-02-01T07:02:51;95072.97;;;1.15;96.40
24280;BME280;12395;42.808;23.408;2023-02-01T07:05:17;95091.25;;;1.15;96.14
24280;BME280;12395;42.808;23.408;2023-02-01T07:07:42;95065.63;;;1.01;96.19
24280;BME280;12395;42.808;23.408;2023-02-01T07:10:09;95083.25;;;1.17;96.19
24280;BME280;12395;42.808;23.408;2023-02-01T07:12:34;95101.75;;;1.23;95.51
24280;BME280;12395;42.808;23.408;2023-02-01T07:15:01;95101.56;;;1.34;95.01
24280;BME280;12395;42.808;23.408;2023-02-01T07:17:27;95107.16;;;1.39;94.44
24280;BME280;12395;42.808;23.408;2023-02-01T07:19:54;95120.34;;;1.38;94.60
24280;BME280;12395;42.808;23.408;2023-02-01T07:22:20;95103.75;;;1.39;94.32
24280;BME280;12395;42.808;23.408;2023-02-01T07:24:45;95107.09;;;1.49;93.56
24280;BME280;12395;42.808;23.408;2023-02-01T07:27:11;95126.63;;;1.63;93.27
24280;BME280;12395;42.808;23.408;2023-02-01T07:29:36;95125.09;;;1.70;93.02
24280;BME280;12395;42.808;23.408;2023-02-01T07:32:02;95127.50;;;1.81;92.05
24280;BME280;12395;42.808;23.408;2023-02-01T07:34:27;95118.53;;;1.83;91.88
24280;BME280;12395;42.808;23.408;2023-02-01T07:36:53;95127.50;;;1.81;91.26
24280;BME280;12395;42.808;23.408;2023-02-01T07:39:18;95117.63;;;1.75;91.27
24280;BME280;12395;42.808;23.408;2023-02-01T07:41:45;95123.81;;;1.74;91.40
24280;BME280;12395;42.808;23.408;2023-02-01T07:44:10;95120.91;;;1.77;90.89
24280;BME280;12395;42.808;23.408;2023-02-01T07:46:36;95140.50;;;1.90;90.54
24280;BME280;12395;42.808;23.408;2023-02-01T07:49:01;95139.66;;;1.90;90.20
24280;BME280;12395;42.808;23.408;2023-02-01T07:51:27;95143.75;;;2.10;90.03
24280;BME280;12395;42.808;23.408;2023-02-01T07:53:52;95141.38;;;1.99;89.01
24280;BME280;12395;42.808;23.408;2023-02-01T07:56:20;95154.06;;;2.11;89.44
24280;BME280;12395;42.808;23.408;2023-02-01T07:58:52;95148.75;;;2.03;88.83
24280;BME280;12395;42.808;23.408;2023-02-01T08:01:21;95139.66;;;1.90;88.96
24280;BME280;12395;42.808;23.408;2023-02-01T08:03:51;95172.03;;;1.97;89.18
24280;BME280;12395;42.808;23.408;2023-02-01T08:06:17;95159.28;;;1.94;89.67
24280;BME280;12395;42.808;23.408;2023-02-01T08:12:01;95153.19;;;2.03;88.76
24280;BME280;12395;42.808;23.408;2023-02-01T08:14:27;95147.84;;;2.12;88.21
24280;BME280;12395;42.808;23.408;2023-02-01T08:16:52;95133.91;;;2.04;88.34
24280;BME280;12395;42.808;23.408;2023-02-01T08:19:18;95151.31;;;2.13;88.22
24280;BME280;12395;42.808;23.408;2023-02-01T08:21:44;95130.63;;;2.02;87.61
24280;BME280;12395;42.808;23.408;2023-02-01T08:24:09;95145.69;;;2.25;87.03
24280;BME280;12395;42.808;23.408;2023-02-01T08:26:35;95172.03;;;2.32;86.70
24280;BME280;12395;42.808;23.408;2023-02-01T08:29:03;95157.81;;;2.09;87.12
24280;BME280;12395;42.808;23.408;2023-02-01T08:31:29;95166.00;;;2.14;87.27
24280;BME280;12395;42.808;23.408;2023-02-01T08:34:00;95174.22;;;2.19;87.35
24280;BME280;12395;42.808;23.408;2023-02-01T08:36:28;95147.47;;;2.25;86.92
24280;BME280;12395;42.808;23.408;2023-02-01T08:38:55;95167.94;;;2.47;86.60
24280;BME280;12395;42.808;23.408;2023-02-01T08:41:24;95155.69;;;2.48;85.93
24280;BME280;12395;42.808;23.408;2023-02-01T08:43:50;95146.84;;;2.49;84.74
24280;BME280;12395;42.808;23.408;2023-02-01T08:46:16;95174.09;;;2.64;84.71
24280;BME280;12395;42.808;23.408;2023-02-01T08:48:42;95155.72;;;2.56;84.09
24280;BME280;12395;42.808;23.408;2023-02-01T08:51:10;95166.63;;;2.69;84.59
24280;BME280;12395;42.808;23.408;2023-02-01T08:53:37;95160.19;;;2.63;84.31
24280;BME280;12395;42.808;23.408;2023-02-01T08:56:03;95168.03;;;2.63;84.42
24280;BME280;12395;42.808;23.408;2023-02-01T08:58:29;95172.00;;;2.67;84.43
24280;BME280;12395;42.808;23.408;2023-02-01T09:00:54;95162.50;;;2.66;84.47
24280;BME280;12395;42.808;23.408;2023-02-01T09:03:21;95169.78;;;2.80;84.49
24280;BME280;12395;42.808;23.408;2023-02-01T09:05:46;95167.38;;;2.87;84.23
24280;BME280;12395;42.808;23.408;2023-02-01T09:08:13;95167.84;;;2.82;83.34
24280;BME280;12395;42.808;23.408;2023-02-01T09:10:41;95166.91;;;2.91;82.98
24280;BME280;12395;42.808;23.408;2023-02-01T09:13:06;95164.63;;;2.88;82.15
24280;BME280;12395;42.808;23.408;2023-02-01T09:15:33;95160.13;;;3.06;82.38
24280;BME280;12395;42.808;23.408;2023-02-01T09:17:58;95167.72;;;3.18;81.87
24280;BME280;12395;42.808;23.408;2023-02-01T09:20:24;95147.44;;;3.20;80.29
24280;BME280;12395;42.808;23.408;2023-02-01T09:22:50;95150.38;;;3.17;80.19
24280;BME280;12395;42.808;23.408;2023-02-01T09:25:16;95150.09;;;3.28;80.15
24280;BME280;12395;42.808;23.408;2023-02-01T09:27:42;95138.66;;;3.29;78.52
24280;BME280;12395;42.808;23.408;2023-02-01T09:30:08;95160.47;;;3.37;78.39
24280;BME280;12395;42.808;23.408;2023-02-01T09:32:33;95166.19;;;3.41;77.97
24280;BME280;12395;42.808;23.408;2023-02-01T09:34:59;95175.19;;;3.38;78.08
24280;BME280;12395;42.808;23.408;2023-02-01T09:37:24;95164.50;;;3.32;77.34
24280;BME280;12395;42.808;23.408;2023-02-01T09:39:49;95132.88;;;3.17;77.82
24280;BME280;12395;42.808;23.408;2023-02-01T09:42:21;95158.03;;;3.44;78.21
24280;BME280;12395;42.808;23.408;2023-02-01T09:47:21;95136.16;;;3.53;76.78
24280;BME280;12395;42.808;23.408;2023-02-01T09:50:05;95139.34;;;3.88;76.43
24280;BME280;12395;42.808;23.408;2023-02-01T09:52:41;95136.94;;;4.27;75.49
24280;BME280;12395;42.808;23.408;2023-02-01T09:55:39;95127.75;;;4.47;72.98
24280;BME280;12395;42.808;23.408;2023-02-01T10:00:37;95117.09;;;4.57;72.12
24280;BME280;12395;42.808;23.408;2023-02-01T10:03:05;95129.72;;;4.61;71.72
24280;BME280;12395;42.808;23.408;2023-02-01T10:10:48;95120.16;;;4.85;69.06
24280;BME280;12395;42.808;23.408;2023-02-01T10:24:23;95113.31;;;4.59;69.17
24280;BME280;12395;42.808;23.408;2023-02-01T10:29:40;95100.19;;;4.51;69.81
24280;BME280;12395;42.808;23.408;2023-02-01T10:32:22;95099.22;;;4.52;68.91
24280;BME280;12395;42.808;23.408;2023-02-01T10:34:59;95104.94;;;4.56;67.63
24280;BME280;12395;42.808;23.408;2023-02-01T10:37:34;95090.69;;;4.58;68.08
24280;BME280;12395;42.808;23.408;2023-02-01T10:40:16;95084.25;;;4.69;69.44
24280;BME280;12395;42.808;23.408;2023-02-01T10:42:43;95075.75;;;4.67;67.96
24280;BME280;12395;42.808;23.408;2023-02-01T10:45:14;95080.59;;;5.02;68.97
24280;BME280;12395;42.808;23.408;2023-02-01T10:47:41;95083.03;;;5.04;66.51
24280;BME280;12395;42.808;23.408;2023-02-01T10:50:18;95085.44;;;5.13;66.97
24280;BME280;12395;42.808;23.408;2023-02-01T10:53:21;95086.94;;;5.08;67.04
24280;BME280;12395;42.808;23.408;2023-02-01T10:55:52;95096.00;;;4.97;66.37
24280;BME280;12395;42.808;23.408;2023-02-01T10:58:27;95075.22;;;4.80;67.75
24280;BME280;12395;42.808;23.408;2023-02-01T11:01:01;95078.59;;;4.96;66.55
24280;BME280;12395;42.808;23.408;2023-02-01T11:03:39;95085.00;;;5.02;66.28
24280;BME280;12395;42.808;23.408;2023-02-01T11:06:13;95069.69;;;5.13;66.72
24280;BME280;12395;42.808;23.408;2023-02-01T11:08:57;95053.09;;;5.21;64.77
24280;BME280;12395;42.808;23.408;2023-02-01T11:11:23;95071.72;;;5.42;65.46
24280;BME280;12395;42.808;23.408;2023-02-01T11:13:58;95072.81;;;5.47;62.70
24280;BME280;12395;42.808;23.408;2023-02-01T11:16:34;95052.59;;;5.25;62.26
24280;BME280;12395;42.808;23.408;2023-02-01T11:19:00;95053.56;;;5.24;62.28
24280;BME280;12395;42.808;23.408;2023-02-01T11:21:26;95058.25;;;5.37;62.45
24280;BME280;12395;42.808;23.408;2023-02-01T11:23:52;95045.16;;;5.29;62.30
24280;BME280;12395;42.808;23.408;2023-02-01T11:26:23;95045.22;;;5.52;61.62
24280;BME280;12395;42.808;23.408;2023-02-01T11:29:13;95046.41;;;5.72;62.02
24280;BME280;12395;42.808;23.408;2023-02-01T11:31:40;95035.00;;;5.87;61.64
24280;BME280;12395;42.808;23.408;2023-02-01T11:34:12;95033.69;;;5.83;61.37
24280;BME280;12395;42.808;23.408;2023-02-01T11:36:39;95046.34;;;5.88;60.56
24280;BME280;12395;42.808;23.408;2023-02-01T11:42:13;95044.34;;;5.82;61.26
24280;BME280;12395;42.808;23.408;2023-02-01T11:44:44;95046.59;;;5.70;60.44
24280;BME280;12395;42.808;23.408;2023-02-01T11:49:44;95046.03;;;5.52;61.52
24280;BME280;12395;42.808;23.408;2023-02-01T11:52:48;95027.25;;;5.63;63.05
24280;BME280;12395;42.808;23.408;2023-02-01T12:06:21;95019.09;;;5.50;61.96
24280;BME280;12395;42.808;23.408;2023-02-01T12:14:23;95021.47;;;5.68;62.53
24280;BME280;12395;42.808;23.408;2023-02-01T12:25:06;94984.63;;;5.53;62.44
24280;BME280;12395;42.808;23.408;2023-02-01T12:27:46;95014.75;;;5.65;63.22
24280;BME280;12395;42.808;23.408;2023-02-01T12:30:33;95001.53;;;5.73;62.34
24280;BME280;12395;42.808;23.408;2023-02-01T12:33:16;95000.44;;;5.90;62.79
24280;BME280;12395;42.808;23.408;2023-02-01T12:38:42;94987.75;;;6.16;60.66
24280;BME280;12395;42.808;23.408;2023-02-01T12:43:49;94998.81;;;6.27;59.98
24280;BME280;12395;42.808;23.408;2023-02-01T12:46:32;95002.47;;;6.26;58.60
24280;BME280;12395;42.808;23.408;2023-02-01T12:51:39;94990.41;;;6.31;59.11
24280;BME280;12395;42.808;23.408;2023-02-01T12:54:18;94985.63;;;6.35;59.09
24280;BME280;12395;42.808;23.408;2023-02-01T12:59:39;94984.25;;;6.24;59.53
24280;BME280;12395;42.808;23.408;2023-02-01T13:02:27;94966.69;;;6.16;60.23
24280;BME280;12395;42.808;23.408;2023-02-01T13:05:01;94970.38;;;6.30;59.51
24280;BME280;12395;42.808;23.408;2023-02-01T13:07:59;94979.97;;;6.38;58.88
24280;BME280;12395;42.808;23.408;2023-02-01T13:13:02;94965.09;;;6.30;58.96
24280;BME280;12395;42.808;23.408;2023-02-01T13:15:34;94975.09;;;6.35;58.56
24280;BME280;12395;42.808;23.408;2023-02-01T13:18:05;94968.19;;;6.48;58.24
24280;BME280;12395;42.808;23.408;2023-02-01T13:20:35;94978.66;;;6.56;57.59
24280;BME280;12395;42.808;23.408;2023-02-01T13:23:11;94983.09;;;6.56;57.06
24280;BME280;12395;42.808;23.408;2023-02-01T13:25:47;94986.25;;;6.51;57.55
24280;BME280;12395;42.808;23.408;2023-02-01T13:36:19;94987.00;;;6.74;54.78
24280;BME280;12395;42.808;23.408;2023-02-01T13:41:50;94987.34;;;6.57;53.84
24280;BME280;12395;42.808;23.408;2023-02-01T13:44:40;94994.88;;;6.60;55.17
24280;BME280;12395;42.808;23.408;2023-02-01T13:47:22;94963.41;;;6.52;54.94
24280;BME280;12395;42.808;23.408;2023-02-01T13:49:49;94959.31;;;6.64;55.64
24280;BME280;12395;42.808;23.408;2023-02-01T13:52:34;94981.47;;;6.84;54.16
24280;BME280;12395;42.808;23.408;2023-02-01T13:57:49;94977.00;;;6.70;54.19
24280;BME280;12395;42.808;23.408;2023-02-01T14:00:25;94977.44;;;6.59;52.45
24280;BME280;12395;42.808;23.408;2023-02-01T14:13:38;94962.81;;;6.27;53.97
24280;BME280;12395;42.808;23.408;2023-02-01T14:23:44;94960.91;;;6.36;53.41
24280;BME280;12395;42.808;23.408;2023-02-01T14:26:12;94947.84;;;6.28;52.59
24280;BME280;12395;42.808;23.408;2023-02-01T14:28:43;94963.28;;;6.31;52.69
24280;BME280;12395;42.808;23.408;2023-02-01T14:34:11;94960.91;;;6.36;53.28
24280;BME280;12395;42.808;23.408;2023-02-01T14:36:41;94948.78;;;6.35;52.54
24280;BME280;12395;42.808;23.408;2023-02-01T14:39:19;94958.13;;;6.37;53.85
24280;BME280;12395;42.808;23.408;2023-02-01T14:41:46;94957.56;;;6.42;54.49
24280;BME280;12395;42.808;23.408;2023-02-01T14:44:14;94957.09;;;6.23;54.30
24280;BME280;12395;42.808;23.408;2023-02-01T14:47:07;94970.16;;;6.17;54.39
24280;BME280;12395;42.808;23.408;2023-02-01T14:49:38;94961.81;;;6.13;55.20
24280;BME280;12395;42.808;23.408;2023-02-01T14:52:11;94964.91;;;6.17;55.20
24280;BME280;12395;42.808;23.408;2023-02-01T14:54:39;94970.34;;;6.15;55.06
24280;BME280;12395;42.808;23.408;2023-02-01T14:57:05;94966.16;;;6.06;54.90
24280;BME280;12395;42.808;23.408;2023-02-01T14:59:34;94967.59;;;6.09;54.99
24280;BME280;12395;42.808;23.408;2023-02-01T15:02:02;94951.81;;;5.94;55.73
24280;BME280;12395;42.808;23.408;2023-02-01T15:04:41;94940.16;;;5.89;55.23
24280;BME280;12395;42.808;23.408;2023-02-01T15:07:12;94958.34;;;5.98;56.33
24280;BME280;12395;42.808;23.408;2023-02-01T15:09:43;94970.09;;;5.80;56.52
24280;BME280;12395;42.808;23.408;2023-02-01T15:14:42;94966.84;;;5.78;59.37
24280;BME280;12395;42.808;23.408;2023-02-01T15:17:26;94961.13;;;5.74;60.31
24280;BME280;12395;42.808;23.408;2023-02-01T15:19:56;94971.19;;;5.71;61.84
24280;BME280;12395;42.808;23.408;2023-02-01T15:22:22;94963.88;;;5.58;61.91
24280;BME280;12395;42.808;23.408;2023-02-01T15:24:55;94971.28;;;5.55;62.06
24280;BME280;12395;42.808;23.408;2023-02-01T15:27:21;94966.56;;;5.50;63.10
24280;BME280;12395;42.808;23.408;2023-02-01T15:29:47;94965.66;;;5.35;63.70
24280;BME280;12395;42.808;23.408;2023-02-01T15:32:36;94980.50;;;5.28;63.95
24280;BME280;12395;42.808;23.408;2023-02-01T15:35:03;94971.53;;;5.14;64.44
24280;BME280;12395;42.808;23.408;2023-02-01T15:37:29;94986.19;;;5.09;64.48